Time;durP1;ratioP1;P1;durP2;ratioP2;P2;SDS_P1;SDS_P2;PMS_P1;PMS_P2;Temp;Humidity;BMP_temperature;BMP_pressure;BME280_temperature;BME280_humidity;BME280_pressure;Samples;Min_cycle;Max_cycle;Signal;HPM_P1;HPM_P2
2023/01/28 05:02:34;;;;;;;;;;;4.20;99.90;;;;;;4942700;28;20386;-70
2023/01/28 05:05:03;;;;;;;;;;;4.10;99.90;;;;;;4931944;28;19930;-70
2023/01/28 05:07:39;;;;;;;;;;;4.20;99.90;;;;;;4950015;28;19941;-72
2023/01/28 05:10:06;;;;;;;;;;;4.10;99.90;;;;;;4966478;28;19930;-72
2023/01/28 05:12:34;;;;;;;;;;;4.10;99.90;;;;;;4942381;29;19936;-72
2023/01/28 05:15:05;;;;;;;;;;;4.10;99.90;;;;;;4935677;29;19937;-72
2023/01/28 05:17:32;;;;;;;;;;;4.00;99.90;;;;;;4951235;29;20397;-72
2023/01/28 05:19:59;;;;;;;;;;;5.30;99.90;;;;;;4950341;29;19935;-72
2023/01/28 05:22:27;;;;;;;;;;;4.10;99.90;;;;;;4919137;29;19930;-73
2023/01/28 05:25:34;;;;;;;;;;;4.10;99.90;;;;;;4910830;29;19931;-73
2023/01/28 05:28:01;;;;;;;;;;;4.10;99.90;;;;;;4910497;29;19931;-70
2023/01/28 05:30:28;;;;;;;;;;;4.20;99.90;;;;;;4929220;29;20337;-73
2023/01/28 05:32:55;;;;;;;;;;;4.10;99.90;;;;;;4934513;29;20284;-73
2023/01/28 05:35:22;;;;;;;;;;;4.80;99.90;;;;;;4934313;29;19934;-73
2023/01/28 05:37:50;;;;;;;;;;;4.10;99.90;;;;;;4950445;29;19926;-72
2023/01/28 05:40:17;;;;;;;;;;;4.00;99.90;;;;;;4950235;29;19937;-72
2023/01/28 05:42:44;;;;;;;;;;;4.20;99.90;;;;;;4930388;29;19927;-72
2023/01/28 05:45:31;;;;;;;;;;;4.50;99.90;;;;;;4946508;29;20348;-72
2023/01/28 05:48:01;;;;;;;;;;;4.20;99.90;;;;;;4946607;29;20006;-72
2023/01/28 05:50:47;;;;;;;;;;;4.00;99.90;;;;;;4947121;29;20426;-72
2023/01/28 05:53:29;;;;;;;;;;;5.80;99.90;;;;;;4935662;29;20299;-72
2023/01/28 05:55:57;;;;;;;;;;;5.80;99.90;;;;;;4949556;29;19933;-72
2023/01/28 05:58:26;;;;;;;;;;;4.00;99.90;;;;;;4949303;28;19977;-71
2023/01/28 06:00:53;;;;;;;;;;;4.10;99.90;;;;;;4929881;29;19934;-71
2023/01/28 06:03:25;;;;;;;;;;;4.10;99.90;;;;;;4900316;29;19927;-72
2023/01/28 06:05:52;;;;;;;;;;;4.60;99.90;;;;;;4913966;29;19930;-72
2023/01/28 06:08:19;;;;;;;;;;;4.00;99.90;;;;;;4930001;29;19976;-72
2023/01/28 06:10:46;;;;;;;;;;;4.00;99.90;;;;;;4932353;29;19931;-72
2023/01/28 06:13:13;;;;;;;;;;;4.30;99.90;;;;;;4933681;29;19946;-72
2023/01/28 06:15:55;;;;;;;;;;;3.90;99.90;;;;;;4935548;29;19926;-72
2023/01/28 06:18:45;;;;;;;;;;;3.90;99.90;;;;;;4943360;29;20059;-72
2023/01/28 06:21:12;;;;;;;;;;;3.90;99.90;;;;;;4941225;29;19930;-73
2023/01/28 06:23:39;;;;;;;;;;;3.90;99.90;;;;;;4898359;29;19994;-72
2023/01/28 06:26:08;;;;;;;;;;;4.00;99.90;;;;;;4925167;29;20406;-72
2023/01/28 06:28:37;;;;;;;;;;;4.90;99.90;;;;;;4941027;29;20089;-72
2023/01/28 06:31:04;;;;;;;;;;;4.00;99.90;;;;;;4948450;29;19927;-72
2023/01/28 06:33:31;;;;;;;;;;;4.00;99.90;;;;;;4937837;28;19931;-72
2023/01/28 06:35:58;;;;;;;;;;;4.00;99.90;;;;;;4931517;29;20500;-72
2023/01/28 06:38:24;;;;;;;;;;;4.20;99.90;;;;;;4930056;29;19927;-72
2023/01/28 06:40:52;;;;;;;;;;;3.90;99.90;;;;;;4933419;29;19974;-72
2023/01/28 06:43:18;;;;;;;;;;;4.00;99.90;;;;;;4949036;29;20677;-72
2023/01/28 06:45:45;;;;;;;;;;;4.00;99.90;;;;;;4949224;29;20025;-72
2023/01/28 06:48:12;;;;;;;;;;;5.50;99.90;;;;;;4949209;29;20315;-72
2023/01/28 06:50:39;;;;;;;;;;;4.00;99.90;;;;;;4948952;28;19958;-72
2023/01/28 06:53:06;;;;;;;;;;;5.90;99.90;;;;;;4914081;29;19966;-72
2023/01/28 06:55:33;;;;;;;;;;;4.00;99.90;;;;;;4913962;29;20017;-72
2023/01/28 06:58:00;;;;;;;;;;;5.40;99.90;;;;;;4897968;29;19970;-72
2023/01/28 07:00:26;;;;;;;;;;;3.70;99.90;;;;;;4933570;28;20034;-72
2023/01/28 07:02:56;;;;;;;;;;;4.00;99.90;;;;;;4951278;28;20373;-72
2023/01/28 07:05:23;;;;;;;;;;;4.00;99.90;;;;;;4951886;28;20723;-72
2023/01/28 07:07:51;;;;;;;;;;;4.00;99.90;;;;;;4935985;28;19938;-71
2023/01/28 07:10:17;;;;;;;;;;;4.10;99.90;;;;;;4935459;28;19930;-71
2023/01/28 07:12:44;;;;;;;;;;;4.00;99.90;;;;;;4935570;28;19937;-72
2023/01/28 07:15:11;;;;;;;;;;;4.00;99.90;;;;;;4968978;28;20040;-71
2023/01/28 07:17:40;;;;;;;;;;;3.90;99.90;;;;;;4935739;28;19993;-72
2023/01/28 07:20:07;;;;;;;;;;;4.00;99.90;;;;;;4892323;29;19978;-72
2023/01/28 07:22:34;;;;;;;;;;;4.10;99.90;;;;;;4892659;29;19934;-71
2023/01/28 07:25:00;;;;;;;;;;;4.10;99.90;;;;;;4877749;29;19963;-71
2023/01/28 07:27:30;;;;;;;;;;;4.00;99.90;;;;;;4877999;29;19935;-71
2023/01/28 07:29:57;;;;;;;;;;;5.90;99.90;;;;;;4892880;29;19927;-71
2023/01/28 07:32:26;;;;;;;;;;;5.30;99.90;;;;;;4882488;29;19931;-71
2023/01/28 07:34:53;;;;;;;;;;;4.10;99.90;;;;;;4893198;29;19931;-71
2023/01/28 07:37:19;;;;;;;;;;;4.00;99.90;;;;;;4908696;29;19927;-71
2023/01/28 07:39:46;;;;;;;;;;;3.90;99.90;;;;;;4908185;29;20002;-71
2023/01/28 07:42:13;;;;;;;;;;;4.00;99.90;;;;;;4877588;29;20034;-72
2023/01/28 07:44:45;;;;;;;;;;;4.10;99.90;;;;;;4877353;29;19967;-70
2023/01/28 07:47:12;;;;;;;;;;;4.10;99.90;;;;;;4892536;29;19935;-70
2023/01/28 07:49:40;;;;;;;;;;;5.50;99.90;;;;;;4875787;29;19931;-70
2023/01/28 07:52:07;;;;;;;;;;;4.10;99.90;;;;;;4915720;28;20627;-70
2023/01/28 07:54:34;;;;;;;;;;;4.10;99.90;;;;;;4933704;28;20420;-70
2023/01/28 07:57:04;;;;;;;;;;;4.10;99.90;;;;;;4950387;28;19930;-70
2023/01/28 07:59:31;;;;;;;;;;;4.10;99.90;;;;;;4952165;28;19985;-69
2023/01/28 08:02:00;;;;;;;;;;;4.10;99.90;;;;;;4967230;28;20302;-71
2023/01/28 08:04:27;;;;;;;;;;;4.10;99.90;;;;;;4959382;28;20323;-70
2023/01/28 08:06:55;;;;;;;;;;;4.10;99.90;;;;;;4943851;28;20450;-70
2023/01/28 08:09:22;;;;;;;;;;;4.20;99.90;;;;;;4968749;28;19930;-70
2023/01/28 08:11:49;;;;;;;;;;;5.30;99.90;;;;;;4947544;28;20427;-70
2023/01/28 08:14:16;;;;;;;;;;;4.20;99.90;;;;;;4964147;28;19935;-71
2023/01/28 08:16:42;;;;;;;;;;;4.20;99.90;;;;;;4933326;28;19961;-71
2023/01/28 08:19:10;;;;;;;;;;;5.30;99.90;;;;;;4964269;28;19935;-71
2023/01/28 08:21:36;;;;;;;;;;;5.80;99.90;;;;;;4962227;28;19965;-71
2023/01/28 08:24:03;;;;;;;;;;;4.20;99.90;;;;;;4953045;28;19930;-70
2023/01/28 08:26:30;;;;;;;;;;;4.20;99.90;;;;;;4953964;28;20017;-71
2023/01/28 08:28:57;;;;;;;;;;;4.20;99.90;;;;;;4938196;28;20582;-72
2023/01/28 08:31:28;;;;;;;;;;;4.10;99.90;;;;;;4938035;28;20045;-71
2023/01/28 08:33:55;;;;;;;;;;;4.20;99.90;;;;;;4954182;28;20017;-71
2023/01/28 08:36:22;;;;;;;;;;;4.90;99.90;;;;;;4938301;28;19965;-71
2023/01/28 08:38:55;;;;;;;;;;;5.70;99.90;;;;;;4938711;28;19941;-73
2023/01/28 08:41:23;;;;;;;;;;;4.20;99.90;;;;;;4938480;28;20393;-72
2023/01/28 08:43:50;;;;;;;;;;;4.30;99.90;;;;;;4953263;28;19930;-71
2023/01/28 08:46:17;;;;;;;;;;;4.30;99.90;;;;;;4953449;28;19926;-69
2023/01/28 08:48:44;;;;;;;;;;;4.20;99.90;;;;;;4971008;28;19930;-71
2023/01/28 08:51:10;;;;;;;;;;;4.30;99.90;;;;;;4953833;28;20392;-72
2023/01/28 08:53:37;;;;;;;;;;;4.20;99.90;;;;;;4921269;28;19943;-72
2023/01/28 08:56:04;;;;;;;;;;;4.20;99.90;;;;;;4936669;28;19930;-71
2023/01/28 08:58:31;;;;;;;;;;;4.30;99.90;;;;;;4946160;28;19941;-72
2023/01/28 09:01:02;;;;;;;;;;;4.30;99.90;;;;;;4948806;28;20017;-71
2023/01/28 09:03:29;;;;;;;;;;;4.40;99.90;;;;;;4931779;28;19937;-72
2023/01/28 09:06:02;;;;;;;;;;;4.40;99.90;;;;;;4926050;29;19931;-71
2023/01/28 09:08:29;;;;;;;;;;;4.40;99.90;;;;;;4954031;28;19953;-69
2023/01/28 09:10:56;;;;;;;;;;;4.30;99.90;;;;;;4938252;28;19934;-69
2023/01/28 09:13:23;;;;;;;;;;;4.30;99.90;;;;;;4905695;28;20468;-71
2023/01/28 09:15:50;;;;;;;;;;;6.20;99.90;;;;;;4938340;28;19926;-71
2023/01/28 09:18:17;;;;;;;;;;;4.30;99.90;;;;;;4954189;28;19936;-71
2023/01/28 09:20:44;;;;;;;;;;;4.20;99.90;;;;;;4922362;28;20386;-72
2023/01/28 09:23:11;;;;;;;;;;;4.30;99.90;;;;;;4972057;28;19944;-71
2023/01/28 09:25:40;;;;;;;;;;;5.60;99.90;;;;;;4939189;28;20067;-72
2023/01/28 09:28:07;;;;;;;;;;;4.20;99.90;;;;;;4938157;28;19993;-71
2023/01/28 09:30:34;;;;;;;;;;;4.30;99.90;;;;;;4953298;28;19933;-70
2023/01/28 09:33:03;;;;;;;;;;;4.30;99.90;;;;;;4954082;28;19930;-70
2023/01/28 09:35:35;;;;;;;;;;;4.40;99.90;;;;;;4938582;28;19937;-71
2023/01/28 09:38:03;;;;;;;;;;;4.50;99.90;;;;;;4971514;28;19936;-73
2023/01/28 09:40:34;;;;;;;;;;;4.40;99.90;;;;;;4922134;28;19934;-71
2023/01/28 09:43:08;;;;;;;;;;;4.40;99.90;;;;;;4954314;28;19946;-71
2023/01/28 09:45:39;;;;;;;;;;;4.40;99.90;;;;;;4938478;28;19926;-71
2023/01/28 09:48:10;;;;;;;;;;;4.50;99.90;;;;;;4953790;28;20279;-74
2023/01/28 09:50:38;;;;;;;;;;;4.40;99.90;;;;;;4935500;28;19986;-73
2023/01/28 09:53:25;;;;;;;;;;;4.50;99.90;;;;;;4937151;28;20441;-73
2023/01/28 09:55:55;;;;;;;;;;;4.50;99.90;;;;;;4945082;28;19941;-73
2023/01/28 09:58:21;;;;;;;;;;;4.50;99.90;;;;;;4959245;28;19948;-73
2023/01/28 10:00:48;;;;;;;;;;;5.40;99.90;;;;;;4984026;28;19930;-70
2023/01/28 10:03:21;;;;;;;;;;;4.70;99.80;;;;;;4961661;28;19938;-73
2023/01/28 10:06:08;;;;;;;;;;;4.00;99.70;;;;;;4967682;28;21265;-73
2023/01/28 10:08:46;;;;;;;;;;;4.70;99.80;;;;;;4952838;28;19933;-72
2023/01/28 10:11:13;;;;;;;;;;;4.70;99.90;;;;;;4952873;28;19930;-72
2023/01/28 10:13:46;;;;;;;;;;;5.70;99.90;;;;;;4968702;28;19930;-72
2023/01/28 10:16:23;;;;;;;;;;;4.20;99.80;;;;;;4949806;28;20008;-72
2023/01/28 10:18:51;;;;;;;;;;;4.80;99.70;;;;;;4949614;28;19953;-72
2023/01/28 10:21:23;;;;;;;;;;;5.30;99.90;;;;;;4964605;28;20312;-72
2023/01/28 10:23:58;;;;;;;;;;;4.90;99.50;;;;;;4902927;29;20075;-72
2023/01/28 10:26:27;;;;;;;;;;;4.90;99.70;;;;;;4876723;29;19931;-72
2023/01/28 10:28:55;;;;;;;;;;;5.10;99.50;;;;;;4874832;29;20568;-73
2023/01/28 10:31:22;;;;;;;;;;;6.60;99.80;;;;;;4891258;29;20060;-74
2023/01/28 10:33:49;;;;;;;;;;;5.40;99.40;;;;;;4888281;29;19931;-71
2023/01/28 10:36:17;;;;;;;;;;;5.10;99.30;;;;;;4904083;29;19987;-73
2023/01/28 10:38:44;;;;;;;;;;;5.10;99.40;;;;;;4885326;29;20050;-73
2023/01/28 10:41:20;;;;;;;;;;;5.10;99.10;;;;;;4898909;28;20430;-73
2023/01/28 10:43:46;;;;;;;;;;;5.10;99.00;;;;;;4960344;28;19934;-72
2023/01/28 10:46:19;;;;;;;;;;;6.10;99.50;;;;;;4969074;28;19996;-71
2023/01/28 10:48:57;;;;;;;;;;;5.10;99.20;;;;;;4956667;28;19930;-78
2023/01/28 10:51:34;;;;;;;;;;;5.20;99.00;;;;;;4954700;28;19969;-75
2023/01/28 10:54:01;;;;;;;;;;;5.30;99.00;;;;;;4932771;28;19934;-75
2023/01/28 10:56:35;;;;;;;;;;;6.50;99.30;;;;;;4952337;28;20020;-75
2023/01/28 10:59:08;;;;;;;;;;;6.50;99.10;;;;;;4951768;28;19933;-75
2023/01/28 11:01:39;;;;;;;;;;;5.70;99.00;;;;;;4931983;28;20386;-75
2023/01/28 11:04:12;;;;;;;;;;;5.20;99.10;;;;;;4935506;28;20020;-75
2023/01/28 11:06:40;;;;;;;;;;;4.80;99.00;;;;;;4934274;28;19930;-75
2023/01/28 11:09:39;;;;;;;;;;;7.40;99.70;;;;;;4935675;28;19937;-75
2023/01/28 11:12:16;;;;;;;;;;;5.10;99.10;;;;;;4935724;28;20672;-75
2023/01/28 11:14:51;;;;;;;;;;;5.10;99.20;;;;;;4936021;28;19937;-75
2023/01/28 11:17:18;;;;;;;;;;;5.10;99.40;;;;;;4902758;28;19930;-74
2023/01/28 11:19:45;;;;;;;;;;;5.50;99.70;;;;;;4935559;28;19961;-75
2023/01/28 11:22:20;;;;;;;;;;;5.70;99.70;;;;;;4952009;28;19926;-74
2023/01/28 11:24:47;;;;;;;;;;;5.20;99.20;;;;;;4951935;28;20330;-75
2023/01/28 11:27:17;;;;;;;;;;;5.20;99.10;;;;;;4935575;28;19930;-75
2023/01/28 11:29:48;;;;;;;;;;;5.20;98.90;;;;;;4935571;28;19985;-75
2023/01/28 11:32:18;;;;;;;;;;;5.20;99.20;;;;;;4936050;28;20425;-75
2023/01/28 11:34:49;;;;;;;;;;;5.20;99.10;;;;;;4931043;29;19931;-75
2023/01/28 11:37:17;;;;;;;;;;;5.20;98.80;;;;;;4914822;28;20760;-75
2023/01/28 11:39:44;;;;;;;;;;;7.40;99.50;;;;;;4946611;28;19926;-75
2023/01/28 11:42:12;;;;;;;;;;;6.10;99.20;;;;;;4930563;29;19930;-74
2023/01/28 11:44:39;;;;;;;;;;;5.20;98.90;;;;;;4931327;29;19927;-75
2023/01/28 11:47:09;;;;;;;;;;;5.30;98.50;;;;;;4915325;29;19982;-75
2023/01/28 11:49:48;;;;;;;;;;;5.30;98.40;;;;;;4930768;29;20374;-75
2023/01/28 11:52:31;;;;;;;;;;;5.30;98.20;;;;;;4930986;29;20430;-75
2023/01/28 11:55:27;;;;;;;;;;;5.20;98.20;;;;;;4930656;29;20029;-75
2023/01/28 11:58:13;;;;;;;;;;;5.30;98.40;;;;;;4932669;29;19965;-75
2023/01/28 12:00:45;;;;;;;;;;;5.30;98.20;;;;;;4933321;29;19948;-75
2023/01/28 12:03:18;;;;;;;;;;;5.30;97.80;;;;;;4924620;29;20359;-75
2023/01/28 12:05:47;;;;;;;;;;;5.30;98.00;;;;;;4954573;28;20053;-75
2023/01/28 12:08:17;;;;;;;;;;;5.30;97.60;;;;;;4939898;28;19937;-75
2023/01/28 12:10:47;;;;;;;;;;;5.40;97.50;;;;;;4924160;28;19930;-76
2023/01/28 12:13:14;;;;;;;;;;;5.30;97.40;;;;;;4938526;28;19937;-75
2023/01/28 12:15:50;;;;;;;;;;;6.70;97.80;;;;;;4939096;28;19940;-75
2023/01/28 12:18:23;;;;;;;;;;;5.30;97.50;;;;;;4955142;28;19934;-74
2023/01/28 12:20:50;;;;;;;;;;;5.40;97.30;;;;;;4954413;28;19937;-75
2023/01/28 12:23:53;;;;;;;;;;;5.40;97.40;;;;;;4971452;28;20013;-75
2023/01/28 12:26:20;;;;;;;;;;;5.50;97.50;;;;;;4953620;28;19965;-75
2023/01/28 12:28:52;;;;;;;;;;;5.40;97.50;;;;;;4971905;28;20338;-74
2023/01/28 12:31:26;;;;;;;;;;;5.40;97.00;;;;;;4953826;28;19934;-75
2023/01/28 12:33:53;;;;;;;;;;;5.50;97.50;;;;;;4938498;28;19930;-75
2023/01/28 12:36:24;;;;;;;;;;;5.40;97.10;;;;;;4971875;28;19949;-74
2023/01/28 12:38:54;;;;;;;;;;;6.70;97.30;;;;;;4938337;28;19938;-75
2023/01/28 12:41:46;;;;;;;;;;;5.60;97.00;;;;;;4949391;29;19934;-75
2023/01/28 12:44:14;;;;;;;;;;;5.50;96.90;;;;;;4918615;29;20483;-75
2023/01/28 12:46:41;;;;;;;;;;;5.50;96.80;;;;;;4918849;29;19935;-75
2023/01/28 12:49:09;;;;;;;;;;;6.20;96.90;;;;;;4934183;29;19930;-75
2023/01/28 12:51:45;;;;;;;;;;;5.40;96.70;;;;;;4917646;29;20758;-75
2023/01/28 12:54:17;;;;;;;;;;;5.50;96.80;;;;;;4895589;29;20750;-75
2023/01/28 12:56:48;;;;;;;;;;;5.40;96.60;;;;;;4910830;29;19934;-75
2023/01/28 12:59:28;;;;;;;;;;;5.60;97.00;;;;;;4909033;29;20013;-75
2023/01/28 13:02:01;;;;;;;;;;;5.40;96.60;;;;;;4905877;29;19931;-74
2023/01/28 13:04:33;;;;;;;;;;;5.50;96.90;;;;;;4905913;29;20016;-75
2023/01/28 13:07:07;;;;;;;;;;;5.60;96.50;;;;;;4859257;29;19932;-74
2023/01/28 13:09:34;;;;;;;;;;;5.60;96.90;;;;;;4867344;29;20022;-75
2023/01/28 13:12:01;;;;;;;;;;;6.90;96.90;;;;;;4875380;29;19935;-76
2023/01/28 13:14:30;;;;;;;;;;;5.50;96.70;;;;;;4870414;29;19931;-76
2023/01/28 13:17:09;;;;;;;;;;;7.10;97.20;;;;;;4895735;29;19994;-76
2023/01/28 13:19:40;;;;;;;;;;;5.60;96.30;;;;;;4898078;29;19931;-74
2023/01/28 13:22:25;;;;;;;;;;;5.10;96.00;;;;;;4895110;29;19974;-74
2023/01/28 13:24:52;;;;;;;;;;;5.60;96.20;;;;;;4916105;28;20032;-74
2023/01/28 13:27:26;;;;;;;;;;;5.20;96.10;;;;;;4934131;28;20306;-74
2023/01/28 13:30:00;;;;;;;;;;;5.60;96.20;;;;;;4934590;28;20403;-74
2023/01/28 13:32:29;;;;;;;;;;;5.50;96.10;;;;;;4932096;28;19950;-74
2023/01/28 13:35:04;;;;;;;;;;;5.50;96.30;;;;;;4934324;28;19958;-74
2023/01/28 13:37:33;;;;;;;;;;;5.40;96.20;;;;;;4949470;28;19934;-74
2023/01/28 13:40:19;;;;;;;;;;;5.70;96.40;;;;;;4952591;28;19981;-74
2023/01/28 13:42:45;;;;;;;;;;;5.40;96.50;;;;;;4935590;28;19973;-73
2023/01/28 13:45:15;;;;;;;;;;;5.40;96.50;;;;;;4936797;28;20457;-74
2023/01/28 13:47:43;;;;;;;;;;;5.40;96.60;;;;;;4969846;28;20797;-71
2023/01/28 13:50:23;;;;;;;;;;;5.40;96.50;;;;;;4947230;28;20410;-70
2023/01/28 13:53:01;;;;;;;;;;;5.50;96.30;;;;;;4949800;28;19936;-71
2023/01/28 13:55:36;;;;;;;;;;;5.50;96.40;;;;;;4952499;28;19937;-70
2023/01/28 13:58:16;;;;;;;;;;;5.50;96.00;;;;;;4936697;28;19926;-70
2023/01/28 14:00:52;;;;;;;;;;;5.60;95.70;;;;;;4948181;28;19937;-70
2023/01/28 14:03:39;;;;;;;;;;;5.60;95.50;;;;;;4949354;28;20578;-71
2023/01/28 14:06:25;;;;;;;;;;;5.60;95.60;;;;;;4921503;28;20359;-71
2023/01/28 14:09:05;;;;;;;;;;;5.70;95.50;;;;;;4952152;28;19930;-71
2023/01/28 14:11:51;;;;;;;;;;;5.60;95.40;;;;;;4949992;28;19941;-74
2023/01/28 14:14:30;;;;;;;;;;;5.40;95.50;;;;;;4957012;28;19963;-74
2023/01/28 14:17:12;;;;;;;;;;;5.40;95.80;;;;;;4949672;28;20314;-75
2023/01/28 14:19:41;;;;;;;;;;;5.40;95.90;;;;;;4919866;29;19941;-75
2023/01/28 14:22:12;;;;;;;;;;;5.40;95.90;;;;;;4940534;28;20025;-74
2023/01/28 14:24:39;;;;;;;;;;;5.40;95.60;;;;;;4940257;29;19938;-75
2023/01/28 14:27:22;;;;;;;;;;;5.30;95.50;;;;;;4918291;28;20420;-74
2023/01/28 14:29:52;;;;;;;;;;;5.20;95.60;;;;;;4907110;29;20594;-74
2023/01/28 14:32:20;;;;;;;;;;;5.10;95.40;;;;;;4914824;29;19931;-74
2023/01/28 14:34:47;;;;;;;;;;;5.10;95.40;;;;;;4946837;28;19937;-73
2023/01/28 14:37:17;;;;;;;;;;;5.20;95.60;;;;;;4934144;28;20449;-75
2023/01/28 14:39:44;;;;;;;;;;;5.10;95.30;;;;;;4948190;28;20091;-73
2023/01/28 14:42:17;;;;;;;;;;;6.20;95.80;;;;;;4942584;29;20433;-73
2023/01/28 14:44:45;;;;;;;;;;;5.00;95.20;;;;;;4922336;29;20025;-73
2023/01/28 14:47:17;;;;;;;;;;;4.90;95.10;;;;;;4907906;28;20291;-73
2023/01/28 14:49:43;;;;;;;;;;;4.90;95.40;;;;;;4934144;28;20339;-73
2023/01/28 14:52:15;;;;;;;;;;;4.90;95.20;;;;;;4950616;28;19929;-73
2023/01/28 14:54:48;;;;;;;;;;;4.90;95.40;;;;;;4936359;28;20000;-74
2023/01/28 14:57:18;;;;;;;;;;;4.90;95.30;;;;;;4955496;28;20371;-73
2023/01/28 14:59:51;;;;;;;;;;;4.90;95.40;;;;;;4945961;28;20020;-74
2023/01/28 15:02:22;;;;;;;;;;;4.90;95.60;;;;;;4944765;28;20066;-75
2023/01/28 15:04:49;;;;;;;;;;;4.80;95.30;;;;;;4926864;28;20570;-74
2023/01/28 15:07:16;;;;;;;;;;;5.70;95.50;;;;;;4919811;28;19976;-75
2023/01/28 15:09:43;;;;;;;;;;;4.80;95.20;;;;;;4949914;28;19930;-75
2023/01/28 15:12:10;;;;;;;;;;;6.30;95.50;;;;;;4932843;28;19929;-73
2023/01/28 15:14:38;;;;;;;;;;;4.80;94.90;;;;;;4966400;28;19930;-72
2023/01/28 15:17:05;;;;;;;;;;;5.70;95.20;;;;;;4935290;28;19930;-73
2023/01/28 15:19:33;;;;;;;;;;;4.70;95.10;;;;;;4935801;28;19947;-73
2023/01/28 15:22:01;;;;;;;;;;;4.80;95.30;;;;;;4934818;28;20314;-72
2023/01/28 15:24:28;;;;;;;;;;;4.70;95.40;;;;;;4951482;28;19930;-72
2023/01/28 15:26:55;;;;;;;;;;;5.20;95.30;;;;;;4935870;28;19933;-72
2023/01/28 15:29:23;;;;;;;;;;;4.60;95.10;;;;;;4951798;28;19930;-72
2023/01/28 15:31:50;;;;;;;;;;;4.60;95.10;;;;;;4936030;28;19932;-73
2023/01/28 15:34:18;;;;;;;;;;;4.70;95.10;;;;;;4939438;28;19933;-72
2023/01/28 15:36:46;;;;;;;;;;;4.60;95.10;;;;;;4972384;28;19926;-72
2023/01/28 15:39:23;;;;;;;;;;;4.80;95.10;;;;;;4954747;28;19930;-72
2023/01/28 15:41:58;;;;;;;;;;;4.60;95.20;;;;;;4954868;28;19926;-72
2023/01/28 15:44:43;;;;;;;;;;;5.10;95.20;;;;;;4952999;28;19930;-72
2023/01/28 15:47:19;;;;;;;;;;;4.60;94.90;;;;;;4934928;28;19927;-72
2023/01/28 15:49:47;;;;;;;;;;;4.50;95.10;;;;;;4939343;28;19930;-72
2023/01/28 15:52:14;;;;;;;;;;;4.50;95.00;;;;;;4959401;28;19930;-72
2023/01/28 15:54:41;;;;;;;;;;;4.50;94.90;;;;;;4951355;28;19976;-72
2023/01/28 15:57:17;;;;;;;;;;;5.20;95.30;;;;;;4958334;28;19984;-73
2023/01/28 15:59:46;;;;;;;;;;;4.50;95.10;;;;;;4957371;28;19930;-73
2023/01/28 16:02:17;;;;;;;;;;;4.50;95.30;;;;;;4947445;28;19930;-73
2023/01/28 16:05:07;;;;;;;;;;;4.50;95.30;;;;;;4973138;28;19936;-73
2023/01/28 16:07:41;;;;;;;;;;;4.40;95.20;;;;;;4971354;28;20448;-73
2023/01/28 16:10:15;;;;;;;;;;;4.50;95.20;;;;;;4918085;29;19946;-73
2023/01/28 16:12:50;;;;;;;;;;;4.40;95.20;;;;;;4902553;29;20036;-72
2023/01/28 16:15:18;;;;;;;;;;;4.40;95.20;;;;;;4885896;29;20438;-73
2023/01/28 16:17:46;;;;;;;;;;;4.30;95.40;;;;;;4897385;29;19974;-73
2023/01/28 16:20:33;;;;;;;;;;;4.30;95.30;;;;;;4884660;29;19937;-73
2023/01/28 16:23:01;;;;;;;;;;;4.30;95.60;;;;;;4917157;29;19931;-73
2023/01/28 16:25:29;;;;;;;;;;;4.40;95.40;;;;;;4900409;29;19931;-73
2023/01/28 16:27:57;;;;;;;;;;;4.30;95.40;;;;;;4901856;29;19931;-73
2023/01/28 16:30:23;;;;;;;;;;;4.30;95.40;;;;;;4887437;29;20487;-72
2023/01/28 16:32:50;;;;;;;;;;;4.30;95.50;;;;;;4875926;29;20008;-73
2023/01/28 16:35:19;;;;;;;;;;;4.30;95.40;;;;;;4869091;29;20475;-72
2023/01/28 16:37:47;;;;;;;;;;;4.20;95.30;;;;;;4869876;29;19982;-72
2023/01/28 16:40:18;;;;;;;;;;;4.20;95.30;;;;;;4891183;28;19931;-73
2023/01/28 16:42:47;;;;;;;;;;;4.30;95.40;;;;;;4921582;28;20301;-73
2023/01/28 16:45:32;;;;;;;;;;;5.10;95.70;;;;;;4933865;28;19938;-73
2023/01/28 16:47:59;;;;;;;;;;;4.20;95.50;;;;;;4929012;28;20029;-73
2023/01/28 16:50:26;;;;;;;;;;;4.20;95.40;;;;;;4954989;28;19933;-73
2023/01/28 16:52:53;;;;;;;;;;;5.50;96.00;;;;;;4953597;28;19937;-73
2023/01/28 16:55:21;;;;;;;;;;;4.60;95.80;;;;;;4953650;28;20662;-73
2023/01/28 16:57:49;;;;;;;;;;;4.20;95.70;;;;;;4970697;28;19934;-71
2023/01/28 17:00:19;;;;;;;;;;;4.10;95.70;;;;;;4932339;28;20372;-73
2023/01/28 17:02:47;;;;;;;;;;;3.60;95.30;;;;;;4930063;29;19930;-77
2023/01/28 17:05:15;;;;;;;;;;;4.20;95.50;;;;;;4936852;28;20391;-77
2023/01/28 17:07:42;;;;;;;;;;;4.20;95.80;;;;;;4970618;28;20528;-77
2023/01/28 17:10:09;;;;;;;;;;;4.10;95.50;;;;;;4953471;28;19930;-77
2023/01/28 17:12:36;;;;;;;;;;;4.10;95.60;;;;;;4938143;28;19937;-77
2023/01/28 17:15:03;;;;;;;;;;;5.70;96.00;;;;;;4922557;28;20394;-77
2023/01/28 17:17:30;;;;;;;;;;;4.10;95.90;;;;;;4938782;28;19926;-77
2023/01/28 17:19:57;;;;;;;;;;;4.20;95.80;;;;;;4936230;28;20049;-78
2023/01/28 17:22:24;;;;;;;;;;;4.30;95.80;;;;;;4970804;28;20351;-77
2023/01/28 17:24:53;;;;;;;;;;;4.00;95.80;;;;;;4939150;28;19934;-77
2023/01/28 17:27:20;;;;;;;;;;;4.00;95.70;;;;;;4922062;28;20326;-77
2023/01/28 17:29:47;;;;;;;;;;;4.20;95.80;;;;;;4938151;28;19930;-77
2023/01/28 17:32:14;;;;;;;;;;;4.30;95.90;;;;;;4937070;28;19934;-77
2023/01/28 17:34:40;;;;;;;;;;;3.90;95.80;;;;;;4937294;28;19933;-77
2023/01/28 17:37:08;;;;;;;;;;;4.70;95.90;;;;;;4952678;28;19930;-77
2023/01/28 17:39:35;;;;;;;;;;;3.50;95.50;;;;;;4902532;29;19971;-77
2023/01/28 17:42:01;;;;;;;;;;;4.00;95.50;;;;;;4878211;29;20363;-76
2023/01/28 17:44:28;;;;;;;;;;;4.00;95.60;;;;;;4890602;29;19937;-77
2023/01/28 17:46:56;;;;;;;;;;;3.90;95.50;;;;;;4886438;29;19966;-77
2023/01/28 17:49:23;;;;;;;;;;;3.50;95.40;;;;;;4882626;29;19946;-77
2023/01/28 17:51:51;;;;;;;;;;;3.90;95.70;;;;;;4893115;29;20110;-77
2023/01/28 17:54:18;;;;;;;;;;;4.40;96.00;;;;;;4894125;29;20034;-77
2023/01/28 17:56:45;;;;;;;;;;;5.10;96.10;;;;;;4912375;28;20022;-77
2023/01/28 17:59:14;;;;;;;;;;;6.10;96.20;;;;;;4970072;28;20245;-78
2023/01/28 18:01:43;;;;;;;;;;;3.90;95.30;;;;;;4951235;28;19934;-74
2023/01/28 18:04:11;;;;;;;;;;;3.80;95.40;;;;;;4952582;28;20028;-76
2023/01/28 18:06:38;;;;;;;;;;;4.10;95.40;;;;;;4934228;28;20033;-76
2023/01/28 18:09:06;;;;;;;;;;;3.80;95.40;;;;;;4939173;28;20049;-77
2023/01/28 18:11:32;;;;;;;;;;;3.90;95.50;;;;;;4953109;28;19938;-76
2023/01/28 18:13:59;;;;;;;;;;;3.70;95.40;;;;;;4926604;29;19930;-77
2023/01/28 18:16:26;;;;;;;;;;;3.80;95.30;;;;;;4936229;28;19945;-77
2023/01/28 18:18:54;;;;;;;;;;;5.50;95.90;;;;;;4933029;29;19941;-77
2023/01/28 18:21:31;;;;;;;;;;;2.10;94.80;;;;;;4964872;28;19993;-76
2023/01/28 18:24:12;;;;;;;;;;;3.90;94.80;;;;;;4954319;28;19976;-77
2023/01/28 18:26:39;;;;;;;;;;;5.00;95.40;;;;;;4942565;28;19941;-77
2023/01/28 18:29:15;;;;;;;;;;;3.80;95.00;;;;;;4943136;29;20462;-76
2023/01/28 18:31:42;;;;;;;;;;;4.10;94.80;;;;;;4937254;28;19937;-77
2023/01/28 18:34:09;;;;;;;;;;;5.10;95.10;;;;;;4935374;28;19930;-76
2023/01/28 18:36:36;;;;;;;;;;;3.80;94.70;;;;;;4951575;28;19936;-76
2023/01/28 18:39:03;;;;;;;;;;;3.70;94.90;;;;;;4950819;28;19930;-76
2023/01/28 18:41:30;;;;;;;;;;;3.70;95.00;;;;;;4951308;28;20306;-77
2023/01/28 18:43:57;;;;;;;;;;;3.70;95.00;;;;;;4933298;28;19930;-77
2023/01/28 18:46:25;;;;;;;;;;;3.60;95.00;;;;;;4950230;28;19977;-76
2023/01/28 18:48:52;;;;;;;;;;;3.70;94.80;;;;;;4937392;28;19980;-76
2023/01/28 18:51:19;;;;;;;;;;;3.60;94.90;;;;;;4952049;28;19936;-74
2023/01/28 18:53:57;;;;;;;;;;;3.70;94.60;;;;;;4949789;28;19940;-77
2023/01/28 18:56:24;;;;;;;;;;;3.60;94.60;;;;;;4935288;28;19941;-77
2023/01/28 18:58:55;;;;;;;;;;;3.60;94.50;;;;;;4929341;28;20306;-77
2023/01/28 19:01:22;;;;;;;;;;;3.70;94.40;;;;;;4959931;28;20000;-77
2023/01/28 19:03:49;;;;;;;;;;;3.60;94.60;;;;;;4955452;28;20314;-77
2023/01/28 19:06:16;;;;;;;;;;;5.00;95.10;;;;;;4969147;28;19938;-77
2023/01/28 19:08:43;;;;;;;;;;;3.60;94.60;;;;;;4935925;28;19934;-77
2023/01/28 19:11:10;;;;;;;;;;;3.50;94.70;;;;;;4935138;28;19926;-77
2023/01/28 19:13:37;;;;;;;;;;;3.70;94.90;;;;;;4974108;28;19926;-79
2023/01/28 19:16:04;;;;;;;;;;;5.30;95.40;;;;;;4972550;28;20104;-77
2023/01/28 19:18:33;;;;;;;;;;;3.50;94.90;;;;;;4913271;29;20205;-76
2023/01/28 19:21:01;;;;;;;;;;;3.70;94.90;;;;;;4926822;29;19931;-79
2023/01/28 19:23:27;;;;;;;;;;;3.40;94.90;;;;;;4910511;29;20292;-77
2023/01/28 19:26:03;;;;;;;;;;;5.20;95.30;;;;;;4912652;29;20646;-79
2023/01/28 19:28:31;;;;;;;;;;;4.10;94.80;;;;;;4911281;29;19974;-80
2023/01/28 19:31:01;;;;;;;;;;;5.50;94.90;;;;;;4878867;29;19938;-78
2023/01/28 19:33:28;;;;;;;;;;;3.40;94.50;;;;;;4921974;29;19935;-77
2023/01/28 19:36:00;;;;;;;;;;;3.40;94.50;;;;;;4898401;28;20760;-78
2023/01/28 19:38:27;;;;;;;;;;;3.30;94.50;;;;;;4929707;29;20029;-78
2023/01/28 19:40:55;;;;;;;;;;;2.70;94.30;;;;;;4938774;28;19930;-78
2023/01/28 19:43:22;;;;;;;;;;;3.20;94.50;;;;;;4962472;28;19932;-78
2023/01/28 19:45:56;;;;;;;;;;;3.40;94.60;;;;;;4960508;28;19930;-78
2023/01/28 19:48:23;;;;;;;;;;;3.40;94.30;;;;;;4942574;28;19926;-77
2023/01/28 19:50:51;;;;;;;;;;;2.00;93.90;;;;;;4901079;28;20660;-77